sensor_id;sensor_type;location;lat;lon;timestamp;temperature;humidity
75471;HTU21D;64051;46.320;48.028;2023-05-10T00:01:32;11.17;64.57
75471;HTU21D;64051;46.320;48.028;2023-05-10T00:03:58;11.16;64.63
75471;HTU21D;64051;46.320;48.028;2023-05-10T00:06:24;11.14;64.92
75471;HTU21D;64051;46.320;48.028;2023-05-10T00:08:50;11.13;64.81
75471;HTU21D;64051;46.320;48.028;2023-05-10T00:11:16;11.10;64.86
75471;HTU21D;64051;46.320;48.028;2023-05-10T00:13:42;11.08;65.08
75471;HTU21D;64051;46.320;48.028;2023-05-10T00:16:07;11.07;65.01
75471;HTU21D;64051;46.320;48.028;2023-05-10T00:18:33;11.05;64.95
75471;HTU21D;64051;46.320;48.028;2023-05-10T00:20:59;11.03;64.99
75471;HTU21D;64051;46.320;48.028;2023-05-10T00:23:25;11.00;65.21
75471;HTU21D;64051;46.320;48.028;2023-05-10T00:25:51;10.98;65.17
75471;HTU21D;64051;46.320;48.028;2023-05-10T00:28:17;10.98;65.20
75471;HTU21D;64051;46.320;48.028;2023-05-10T00:30:43;10.96;65.17
75471;HTU21D;64051;46.320;48.028;2023-05-10T00:33:09;10.94;65.27
75471;HTU21D;64051;46.320;48.028;2023-05-10T00:35:35;10.94;65.51
75471;HTU21D;64051;46.320;48.028;2023-05-10T00:38:01;10.94;65.37
75471;HTU21D;64051;46.320;48.028;2023-05-10T00:40:27;10.93;65.30
75471;HTU21D;64051;46.320;48.028;2023-05-10T00:42:58;10.93;65.33
75471;HTU21D;64051;46.320;48.028;2023-05-10T00:45:26;10.92;65.43
75471;HTU21D;64051;46.320;48.028;2023-05-10T00:47:52;10.88;65.54
75471;HTU21D;64051;46.320;48.028;2023-05-10T00:50:22;10.88;65.58
75471;HTU21D;64051;46.320;48.028;2023-05-10T00:52:48;10.88;65.56
75471;HTU21D;64051;46.320;48.028;2023-05-10T00:55:14;10.88;65.60
75471;HTU21D;64051;46.320;48.028;2023-05-10T00:57:41;10.89;65.65
75471;HTU21D;64051;46.320;48.028;2023-05-10T01:00:07;10.89;65.72
75471;HTU21D;64051;46.320;48.028;2023-05-10T01:02:34;10.92;65.75
75471;HTU21D;64051;46.320;48.028;2023-05-10T01:05:02;10.94;65.85
75471;HTU21D;64051;46.320;48.028;2023-05-10T01:07:29;10.95;65.78
75471;HTU21D;64051;46.320;48.028;2023-05-10T01:09:56;10.95;65.78
75471;HTU21D;64051;46.320;48.028;2023-05-10T01:12:22;10.95;65.81
75471;HTU21D;64051;46.320;48.028;2023-05-10T01:14:48;10.94;65.79
75471;HTU21D;64051;46.320;48.028;2023-05-10T01:17:14;10.94;65.82
75471;HTU21D;64051;46.320;48.028;2023-05-10T01:19:41;10.90;65.88
75471;HTU21D;64051;46.320;48.028;2023-05-10T01:36:08;10.73;66.16
75471;HTU21D;64051;46.320;48.028;2023-05-10T01:39:10;10.69;66.39
75471;HTU21D;64051;46.320;48.028;2023-05-10T01:44:31;10.60;66.41
75471;HTU21D;64051;46.320;48.028;2023-05-10T01:47:30;10.55;66.58
75471;HTU21D;64051;46.320;48.028;2023-05-10T01:50:03;10.51;66.35
75471;HTU21D;64051;46.320;48.028;2023-05-10T01:52:33;10.50;66.47
75471;HTU21D;64051;46.320;48.028;2023-05-10T01:55:05;10.48;66.53
75471;HTU21D;64051;46.320;48.028;2023-05-10T01:57:34;10.45;66.56
75471;HTU21D;64051;46.320;48.028;2023-05-10T02:00:03;10.44;66.88
75471;HTU21D;64051;46.320;48.028;2023-05-10T02:02:42;10.41;66.91
75471;HTU21D;64051;46.320;48.028;2023-05-10T02:05:12;10.39;66.98
75471;HTU21D;64051;46.320;48.028;2023-05-10T02:07:39;10.41;66.94
75471;HTU21D;64051;46.320;48.028;2023-05-10T02:10:07;10.43;67.10
75471;HTU21D;64051;46.320;48.028;2023-05-10T02:12:36;10.50;67.12
75471;HTU21D;64051;46.320;48.028;2023-05-10T02:15:05;10.55;67.23
75471;HTU21D;64051;46.320;48.028;2023-05-10T02:17:32;10.65;67.17
75471;HTU21D;64051;46.320;48.028;2023-05-10T02:20:01;10.72;67.14
75471;HTU21D;64051;46.320;48.028;2023-05-10T02:22:28;10.82;67.05
75471;HTU21D;64051;46.320;48.028;2023-05-10T02:24:55;10.90;66.94
75471;HTU21D;64051;46.320;48.028;2023-05-10T02:27:24;10.96;66.92
75471;HTU21D;64051;46.320;48.028;2023-05-10T02:29:51;10.98;66.92
75471;HTU21D;64051;46.320;48.028;2023-05-10T02:32:18;11.04;66.93
75471;HTU21D;64051;46.320;48.028;2023-05-10T02:34:45;11.11;66.96
75471;HTU21D;64051;46.320;48.028;2023-05-10T02:37:19;11.20;66.91
75471;HTU21D;64051;46.320;48.028;2023-05-10T02:39:49;11.28;66.90
75471;HTU21D;64051;46.320;48.028;2023-05-10T02:42:18;11.39;66.98
75471;HTU21D;64051;46.320;48.028;2023-05-10T02:44:51;11.51;66.95
75471;HTU21D;64051;46.320;48.028;2023-05-10T02:47:19;11.60;66.83
75471;HTU21D;64051;46.320;48.028;2023-05-10T02:49:48;11.64;66.74
75471;HTU21D;64051;46.320;48.028;2023-05-10T02:52:21;11.70;66.81
75471;HTU21D;64051;46.320;48.028;2023-05-10T02:54:50;11.76;67.01
75471;HTU21D;64051;46.320;48.028;2023-05-10T02:57:22;11.85;67.13
75471;HTU21D;64051;46.320;48.028;2023-05-10T02:59:50;11.97;67.15
75471;HTU21D;64051;46.320;48.028;2023-05-10T03:02:16;12.07;67.03
75471;HTU21D;64051;46.320;48.028;2023-05-10T03:04:43;12.20;66.96
75471;HTU21D;64051;46.320;48.028;2023-05-10T03:07:12;12.33;66.85
75471;HTU21D;64051;46.320;48.028;2023-05-10T03:09:40;12.47;66.92
75471;HTU21D;64051;46.320;48.028;2023-05-10T03:12:21;12.63;67.03
75471;HTU21D;64051;46.320;48.028;2023-05-10T03:17:45;13.07;66.98
75471;HTU21D;64051;46.320;48.028;2023-05-10T03:20:22;13.29;67.04
75471;HTU21D;64051;46.320;48.028;2023-05-10T03:22:54;13.45;66.60
75471;HTU21D;64051;46.320;48.028;2023-05-10T03:25:21;13.56;66.24
75471;HTU21D;64051;46.320;48.028;2023-05-10T03:27:52;13.63;66.02
75471;HTU21D;64051;46.320;48.028;2023-05-10T03:30:18;13.66;65.83
75471;HTU21D;64051;46.320;48.028;2023-05-10T03:32:48;13.69;65.82
75471;HTU21D;64051;46.320;48.028;2023-05-10T03:35:16;13.69;65.77
75471;HTU21D;64051;46.320;48.028;2023-05-10T03:37:43;13.78;65.97
75471;HTU21D;64051;46.320;48.028;2023-05-10T03:40:09;13.88;65.92
75471;HTU21D;64051;46.320;48.028;2023-05-10T03:42:41;13.96;65.95
75471;HTU21D;64051;46.320;48.028;2023-05-10T03:45:07;14.06;65.91
75471;HTU21D;64051;46.320;48.028;2023-05-10T03:47:34;14.13;65.83
75471;HTU21D;64051;46.320;48.028;2023-05-10T03:50:00;14.21;65.66
75471;HTU21D;64051;46.320;48.028;2023-05-10T03:52:26;14.25;65.53
75471;HTU21D;64051;46.320;48.028;2023-05-10T03:54:51;14.32;65.44
75471;HTU21D;64051;46.320;48.028;2023-05-10T03:57:17;14.35;65.28
75471;HTU21D;64051;46.320;48.028;2023-05-10T03:59:43;14.36;65.24
75471;HTU21D;64051;46.320;48.028;2023-05-10T04:02:10;14.38;65.27
75471;HTU21D;64051;46.320;48.028;2023-05-10T04:04:36;14.41;65.21
75471;HTU21D;64051;46.320;48.028;2023-05-10T04:07:02;14.44;65.17
75471;HTU21D;64051;46.320;48.028;2023-05-10T04:09:28;14.45;65.12
75471;HTU21D;64051;46.320;48.028;2023-05-10T04:11:54;14.49;65.16
75471;HTU21D;64051;46.320;48.028;2023-05-10T04:14:23;14.52;65.11
75471;HTU21D;64051;46.320;48.028;2023-05-10T04:16:48;14.55;65.03
75471;HTU21D;64051;46.320;48.028;2023-05-10T04:19:15;14.58;65.05
75471;HTU21D;64051;46.320;48.028;2023-05-10T04:21:40;14.63;65.08
75471;HTU21D;64051;46.320;48.028;2023-05-10T04:24:06;14.69;65.05
75471;HTU21D;64051;46.320;48.028;2023-05-10T04:26:32;14.79;65.03
75471;HTU21D;64051;46.320;48.028;2023-05-10T04:28:58;14.89;64.96
75471;HTU21D;64051;46.320;48.028;2023-05-10T04:31:24;14.98;64.81
75471;HTU21D;64051;46.320;48.028;2023-05-10T04:33:50;15.02;64.65
75471;HTU21D;64051;46.320;48.028;2023-05-10T04:36:16;15.03;64.63
75471;HTU21D;64051;46.320;48.028;2023-05-10T04:38:42;15.09;64.56
75471;HTU21D;64051;46.320;48.028;2023-05-10T04:41:09;15.12;64.56
75471;HTU21D;64051;46.320;48.028;2023-05-10T04:43:38;15.15;64.46
75471;HTU21D;64051;46.320;48.028;2023-05-10T04:46:07;15.18;64.47
75471;HTU21D;64051;46.320;48.028;2023-05-10T04:48:33;15.23;64.48
75471;HTU21D;64051;46.320;48.028;2023-05-10T04:50:59;15.30;64.40
75471;HTU21D;64051;46.320;48.028;2023-05-10T04:53:25;15.37;64.36
75471;HTU21D;64051;46.320;48.028;2023-05-10T04:55:51;15.48;64.35
75471;HTU21D;64051;46.320;48.028;2023-05-10T04:58:20;15.61;64.26
75471;HTU21D;64051;46.320;48.028;2023-05-10T05:00:46;15.72;64.07
75471;HTU21D;64051;46.320;48.028;2023-05-10T05:03:12;15.83;64.00
75471;HTU21D;64051;46.320;48.028;2023-05-10T05:05:38;15.95;63.89
75471;HTU21D;64051;46.320;48.028;2023-05-10T05:08:04;16.05;63.68
75471;HTU21D;64051;46.320;48.028;2023-05-10T05:10:30;16.13;63.44
75471;HTU21D;64051;46.320;48.028;2023-05-10T05:12:56;16.17;63.26
75471;HTU21D;64051;46.320;48.028;2023-05-10T05:15:22;16.25;63.24
75471;HTU21D;64051;46.320;48.028;2023-05-10T05:17:47;16.32;62.96
75471;HTU21D;64051;46.320;48.028;2023-05-10T05:20:13;16.36;62.81
75471;HTU21D;64051;46.320;48.028;2023-05-10T05:22:39;16.42;62.60
75471;HTU21D;64051;46.320;48.028;2023-05-10T05:25:06;16.49;62.54
75471;HTU21D;64051;46.320;48.028;2023-05-10T05:27:32;16.58;62.44
75471;HTU21D;64051;46.320;48.028;2023-05-10T05:29:58;16.69;62.32
75471;HTU21D;64051;46.320;48.028;2023-05-10T05:32:24;16.77;62.10
75471;HTU21D;64051;46.320;48.028;2023-05-10T05:34:51;16.87;61.89
75471;HTU21D;64051;46.320;48.028;2023-05-10T05:37:19;16.92;61.76
75471;HTU21D;64051;46.320;48.028;2023-05-10T05:39:45;17.01;61.73
75471;HTU21D;64051;46.320;48.028;2023-05-10T05:42:12;17.08;61.66
75471;HTU21D;64051;46.320;48.028;2023-05-10T05:44:38;17.19;61.43
75471;HTU21D;64051;46.320;48.028;2023-05-10T05:47:05;17.24;61.28
75471;HTU21D;64051;46.320;48.028;2023-05-10T05:49:34;17.32;61.23
75471;HTU21D;64051;46.320;48.028;2023-05-10T05:52:01;17.44;61.18
75471;HTU21D;64051;46.320;48.028;2023-05-10T05:54:27;17.56;61.02
75471;HTU21D;64051;46.320;48.028;2023-05-10T05:57:00;17.66;58.58
75471;HTU21D;64051;46.320;48.028;2023-05-10T05:59:26;17.72;60.47
75471;HTU21D;64051;46.320;48.028;2023-05-10T06:01:52;17.75;60.51
75471;HTU21D;64051;46.320;48.028;2023-05-10T06:04:18;17.82;60.53
75471;HTU21D;64051;46.320;48.028;2023-05-10T06:06:47;17.93;60.32
75471;HTU21D;64051;46.320;48.028;2023-05-10T06:09:13;18.02;60.12
75471;HTU21D;64051;46.320;48.028;2023-05-10T06:11:39;18.10;60.10
75471;HTU21D;64051;46.320;48.028;2023-05-10T06:14:05;18.19;59.89
75471;HTU21D;64051;46.320;48.028;2023-05-10T06:16:33;18.28;59.83
75471;HTU21D;64051;46.320;48.028;2023-05-10T06:19:05;18.37;59.63
75471;HTU21D;64051;46.320;48.028;2023-05-10T06:21:31;18.43;59.54
75471;HTU21D;64051;46.320;48.028;2023-05-10T06:23:59;18.51;59.40
75471;HTU21D;64051;46.320;48.028;2023-05-10T06:26:25;18.66;59.51
75471;HTU21D;64051;46.320;48.028;2023-05-10T06:28:51;18.79;59.12
75471;HTU21D;64051;46.320;48.028;2023-05-10T06:31:17;18.87;58.71
75471;HTU21D;64051;46.320;48.028;2023-05-10T06:33:49;18.92;58.38
75471;HTU21D;64051;46.320;48.028;2023-05-10T06:36:14;18.93;58.27
75471;HTU21D;64051;46.320;48.028;2023-05-10T06:38:40;18.99;58.35
75471;HTU21D;64051;46.320;48.028;2023-05-10T06:41:06;19.11;58.22
75471;HTU21D;64051;46.320;48.028;2023-05-10T06:43:32;19.17;57.88
75471;HTU21D;64051;46.320;48.028;2023-05-10T06:45:58;19.24;57.64
75471;HTU21D;64051;46.320;48.028;2023-05-10T06:48:24;19.28;57.69
75471;HTU21D;64051;46.320;48.028;2023-05-10T06:50:50;19.38;57.58
75471;HTU21D;64051;46.320;48.028;2023-05-10T06:53:16;19.48;57.31
75471;HTU21D;64051;46.320;48.028;2023-05-10T06:55:44;19.55;57.07
75471;HTU21D;64051;46.320;48.028;2023-05-10T06:58:11;19.62;56.97
75471;HTU21D;64051;46.320;48.028;2023-05-10T07:00:39;19.71;56.83
75471;HTU21D;64051;46.320;48.028;2023-05-10T07:03:11;19.81;56.71
75471;HTU21D;64051;46.320;48.028;2023-05-10T07:05:37;19.92;56.63
75471;HTU21D;64051;46.320;48.028;2023-05-10T07:08:03;20.09;56.42
75471;HTU21D;64051;46.320;48.028;2023-05-10T07:10:28;20.21;56.21
75471;HTU21D;64051;46.320;48.028;2023-05-10T07:13:04;20.26;55.79
75471;HTU21D;64051;46.320;48.028;2023-05-10T07:15:30;20.26;55.42
75471;HTU21D;64051;46.320;48.028;2023-05-10T07:17:57;20.24;55.41
75471;HTU21D;64051;46.320;48.028;2023-05-10T07:20:22;20.24;55.07
75471;HTU21D;64051;46.320;48.028;2023-05-10T07:22:48;20.26;54.94
75471;HTU21D;64051;46.320;48.028;2023-05-10T07:25:14;20.35;54.92
75471;HTU21D;64051;46.320;48.028;2023-05-10T07:27:40;20.50;54.72
75471;HTU21D;64051;46.320;48.028;2023-05-10T07:30:07;20.62;54.43
75471;HTU21D;64051;46.320;48.028;2023-05-10T07:32:33;20.69;53.97
75471;HTU21D;64051;46.320;48.028;2023-05-10T07:35:01;20.62;53.53
75471;HTU21D;64051;46.320;48.028;2023-05-10T07:37:30;20.59;53.73
75471;HTU21D;64051;46.320;48.028;2023-05-10T07:39:59;20.64;53.83
75471;HTU21D;64051;46.320;48.028;2023-05-10T07:42:25;20.71;53.56
75471;HTU21D;64051;46.320;48.028;2023-05-10T07:44:50;20.73;53.28
75471;HTU21D;64051;46.320;48.028;2023-05-10T07:47:16;20.83;53.41
75471;HTU21D;64051;46.320;48.028;2023-05-10T07:49:45;21.00;53.42
75471;HTU21D;64051;46.320;48.028;2023-05-10T07:52:13;21.20;53.17
75471;HTU21D;64051;46.320;48.028;2023-05-10T07:54:40;21.33;52.74
75471;HTU21D;64051;46.320;48.028;2023-05-10T07:57:05;21.33;52.33
75471;HTU21D;64051;46.320;48.028;2023-05-10T07:59:31;21.28;52.22
75471;HTU21D;64051;46.320;48.028;2023-05-10T08:01:58;21.34;52.49
75471;HTU21D;64051;46.320;48.028;2023-05-10T08:04:24;21.52;52.54
75471;HTU21D;64051;46.320;48.028;2023-05-10T08:06:50;21.72;52.27
75471;HTU21D;64051;46.320;48.028;2023-05-10T08:09:19;21.80;51.53
75471;HTU21D;64051;46.320;48.028;2023-05-10T08:11:49;21.81;51.65
75471;HTU21D;64051;46.320;48.028;2023-05-10T08:14:16;21.93;51.64
75471;HTU21D;64051;46.320;48.028;2023-05-10T08:16:42;22.11;51.46
75471;HTU21D;64051;46.320;48.028;2023-05-10T08:19:08;22.27;51.21
75471;HTU21D;64051;46.320;48.028;2023-05-10T08:21:34;22.38;50.97
75471;HTU21D;64051;46.320;48.028;2023-05-10T08:24:04;22.47;50.73
75471;HTU21D;64051;46.320;48.028;2023-05-10T08:26:32;22.52;50.60
75471;HTU21D;64051;46.320;48.028;2023-05-10T08:29:04;22.53;50.18
75471;HTU21D;64051;46.320;48.028;2023-05-10T08:31:30;22.49;50.34
75471;HTU21D;64051;46.320;48.028;2023-05-10T08:33:56;22.55;50.30
75471;HTU21D;64051;46.320;48.028;2023-05-10T08:36:22;22.66;50.10
75471;HTU21D;64051;46.320;48.028;2023-05-10T08:38:53;22.68;49.48
75471;HTU21D;64051;46.320;48.028;2023-05-10T08:41:20;22.72;49.81
75471;HTU21D;64051;46.320;48.028;2023-05-10T08:43:47;22.87;49.63
75471;HTU21D;64051;46.320;48.028;2023-05-10T08:46:17;23.00;49.35
75471;HTU21D;64051;46.320;48.028;2023-05-10T08:48:46;23.14;49.56
75471;HTU21D;64051;46.320;48.028;2023-05-10T08:51:22;23.21;49.11
75471;HTU21D;64051;46.320;48.028;2023-05-10T08:53:49;23.21;49.21
75471;HTU21D;64051;46.320;48.028;2023-05-10T08:56:15;23.28;49.15
75471;HTU21D;64051;46.320;48.028;2023-05-10T08:58:43;23.37;48.86
75471;HTU21D;64051;46.320;48.028;2023-05-10T09:01:09;23.49;48.82
75471;HTU21D;64051;46.320;48.028;2023-05-10T09:03:38;23.56;48.27
75471;HTU21D;64051;46.320;48.028;2023-05-10T09:06:04;23.54;48.14
75471;HTU21D;64051;46.320;48.028;2023-05-10T09:08:30;23.57;47.99
75471;HTU21D;64051;46.320;48.028;2023-05-10T09:10:57;23.60;47.89
75471;HTU21D;64051;46.320;48.028;2023-05-10T09:13:23;23.66;47.72
75471;HTU21D;64051;46.320;48.028;2023-05-10T09:15:51;23.69;47.41
75471;HTU21D;64051;46.320;48.028;2023-05-10T09:18:17;23.65;47.33
75471;HTU21D;64051;46.320;48.028;2023-05-10T09:20:46;23.66;46.83
75471;HTU21D;64051;46.320;48.028;2023-05-10T09:23:18;23.56;46.89
75471;HTU21D;64051;46.320;48.028;2023-05-10T09:25:47;23.57;47.25
75471;HTU21D;64051;46.320;48.028;2023-05-10T09:28:12;23.66;47.12
75471;HTU21D;64051;46.320;48.028;2023-05-10T09:30:38;23.82;47.10
75471;HTU21D;64051;46.320;48.028;2023-05-10T09:33:10;23.92;46.64
75471;HTU21D;64051;46.320;48.028;2023-05-10T09:35:36;23.86;46.47
75471;HTU21D;64051;46.320;48.028;2023-05-10T09:38:05;23.71;46.39
75471;HTU21D;64051;46.320;48.028;2023-05-10T09:40:31;23.64;46.53
75471;HTU21D;64051;46.320;48.028;2023-05-10T09:43:06;23.67;46.53
75471;HTU21D;64051;46.320;48.028;2023-05-10T09:45:33;23.69;46.35
75471;HTU21D;64051;46.320;48.028;2023-05-10T09:48:01;23.66;46.20
75471;HTU21D;64051;46.320;48.028;2023-05-10T09:50:36;23.65;46.26
75471;HTU21D;64051;46.320;48.028;2023-05-10T09:53:05;23.74;46.45
75471;HTU21D;64051;46.320;48.028;2023-05-10T09:55:41;23.89;46.16
75471;HTU21D;64051;46.320;48.028;2023-05-10T09:58:12;23.99;46.05
75471;HTU21D;64051;46.320;48.028;2023-05-10T10:00:43;24.03;45.84
75471;HTU21D;64051;46.320;48.028;2023-05-10T10:03:17;24.08;45.91
75471;HTU21D;64051;46.320;48.028;2023-05-10T10:05:44;24.21;46.02
75471;HTU21D;64051;46.320;48.028;2023-05-10T10:08:10;24.35;45.77
75471;HTU21D;64051;46.320;48.028;2023-05-10T10:10:37;24.40;45.55
75471;HTU21D;64051;46.320;48.028;2023-05-10T10:13:06;24.36;45.27
75471;HTU21D;64051;46.320;48.028;2023-05-10T10:15:33;24.40;45.51
75471;HTU21D;64051;46.320;48.028;2023-05-10T10:18:00;24.60;45.55
75471;HTU21D;64051;46.320;48.028;2023-05-10T10:20:32;24.71;44.90
75471;HTU21D;64051;46.320;48.028;2023-05-10T10:22:58;24.64;44.54
75471;HTU21D;64051;46.320;48.028;2023-05-10T10:25:27;24.61;44.49
75471;HTU21D;64051;46.320;48.028;2023-05-10T10:28:04;24.71;44.64
75471;HTU21D;64051;46.320;48.028;2023-05-10T10:36:04;24.93;44.65
75471;HTU21D;64051;46.320;48.028;2023-05-10T10:38:58;25.14;44.15
75471;HTU21D;64051;46.320;48.028;2023-05-10T10:41:39;25.27;44.03
75471;HTU21D;64051;46.320;48.028;2023-05-10T10:55:11;25.58;43.39
75471;HTU21D;64051;46.320;48.028;2023-05-10T11:00:23;25.89;43.10
75471;HTU21D;64051;46.320;48.028;2023-05-10T11:03:14;25.88;42.24
75471;HTU21D;64051;46.320;48.028;2023-05-10T11:05:45;25.75;42.41
75471;HTU21D;64051;46.320;48.028;2023-05-10T11:08:26;25.71;41.78
75471;HTU21D;64051;46.320;48.028;2023-05-10T11:13:33;25.45;38.44
75471;HTU21D;64051;46.320;48.028;2023-05-10T11:16:24;25.33;42.17
75471;HTU21D;64051;46.320;48.028;2023-05-10T11:18:58;25.29;42.00
75471;HTU21D;64051;46.320;48.028;2023-05-10T11:21:27;25.29;42.32
75471;HTU21D;64051;46.320;48.028;2023-05-10T11:24:01;25.27;41.73
75471;HTU21D;64051;46.320;48.028;2023-05-10T11:26:35;25.21;41.81
75471;HTU21D;64051;46.320;48.028;2023-05-10T11:29:02;25.21;41.89
75471;HTU21D;64051;46.320;48.028;2023-05-10T11:31:30;25.21;41.65
75471;HTU21D;64051;46.320;48.028;2023-05-10T11:33:58;25.04;41.42
75471;HTU21D;64051;46.320;48.028;2023-05-10T11:36:27;24.93;41.62
75471;HTU21D;64051;46.320;48.028;2023-05-10T11:38:59;24.87;41.65
75471;HTU21D;64051;46.320;48.028;2023-05-10T11:41:30;24.80;41.33
75471;HTU21D;64051;46.320;48.028;2023-05-10T11:43:57;24.79;41.68
75471;HTU21D;64051;46.320;48.028;2023-05-10T11:46:29;24.84;41.45
75471;HTU21D;64051;46.320;48.028;2023-05-10T11:49:01;24.88;41.82
75471;HTU21D;64051;46.320;48.028;2023-05-10T11:51:36;24.85;41.49
75471;HTU21D;64051;46.320;48.028;2023-05-10T11:54:06;24.65;40.52
75471;HTU21D;64051;46.320;48.028;2023-05-10T11:56:34;24.49;41.70
75471;HTU21D;64051;46.320;48.028;2023-05-10T11:59:04;24.34;41.58
75471;HTU21D;64051;46.320;48.028;2023-05-10T12:01:30;24.18;41.72
75471;HTU21D;64051;46.320;48.028;2023-05-10T12:03:58;24.08;41.77
75471;HTU21D;64051;46.320;48.028;2023-05-10T12:06:30;23.98;41.65
75471;HTU21D;64051;46.320;48.028;2023-05-10T12:09:01;24.00;41.85
75471;HTU21D;64051;46.320;48.028;2023-05-10T12:11:41;24.02;41.58
75471;HTU21D;64051;46.320;48.028;2023-05-10T12:14:10;24.02;41.78
75471;HTU21D;64051;46.320;48.028;2023-05-10T12:16:37;24.05;41.89
75471;HTU21D;64051;46.320;48.028;2023-05-10T12:19:06;24.16;41.74
75471;HTU21D;64051;46.320;48.028;2023-05-10T12:21:35;24.20;41.46
75471;HTU21D;64051;46.320;48.028;2023-05-10T12:24:04;24.26;41.58
75471;HTU21D;64051;46.320;48.028;2023-05-10T12:26:31;24.32;41.59
75471;HTU21D;64051;46.320;48.028;2023-05-10T12:29:17;24.32;40.06
75471;HTU21D;64051;46.320;48.028;2023-05-10T12:31:55;24.26;41.15
75471;HTU21D;64051;46.320;48.028;2023-05-10T12:34:31;24.23;41.17
75471;HTU21D;64051;46.320;48.028;2023-05-10T12:36:58;24.13;41.44
75471;HTU21D;64051;46.320;48.028;2023-05-10T12:39:25;23.96;41.45
75471;HTU21D;64051;46.320;48.028;2023-05-10T12:41:57;23.81;41.58
75471;HTU21D;64051;46.320;48.028;2023-05-10T12:44:23;23.70;41.77
75471;HTU21D;64051;46.320;48.028;2023-05-10T12:46:51;23.60;41.78
75471;HTU21D;64051;46.320;48.028;2023-05-10T12:49:18;23.54;41.83
75471;HTU21D;64051;46.320;48.028;2023-05-10T12:51:47;23.50;41.97
75471;HTU21D;64051;46.320;48.028;2023-05-10T12:54:16;23.50;41.90
75471;HTU21D;64051;46.320;48.028;2023-05-10T12:56:46;23.50;41.94
75471;HTU21D;64051;46.320;48.028;2023-05-10T12:59:14;23.51;41.98
75471;HTU21D;64051;46.320;48.028;2023-05-10T13:01:52;23.53;41.78
75471;HTU21D;64051;46.320;48.028;2023-05-10T13:04:32;23.50;41.43
75471;HTU21D;64051;46.320;48.028;2023-05-10T13:07:14;23.44;41.62
75471;HTU21D;64051;46.320;48.028;2023-05-10T13:09:40;23.43;41.78
75471;HTU21D;64051;46.320;48.028;2023-05-10T13:12:09;23.43;41.75
75471;HTU21D;64051;46.320;48.028;2023-05-10T13:14:35;23.51;41.78
75471;HTU21D;64051;46.320;48.028;2023-05-10T13:17:09;23.64;41.67
75471;HTU21D;64051;46.320;48.028;2023-05-10T13:19:37;23.73;41.61
75471;HTU21D;64051;46.320;48.028;2023-05-10T13:22:49;23.83;40.23
75471;HTU21D;64051;46.320;48.028;2023-05-10T13:33:04;23.89;41.58
75471;HTU21D;64051;46.320;48.028;2023-05-10T13:35:53;23.95;40.91
75471;HTU21D;64051;46.320;48.028;2023-05-10T13:42:29;23.99;41.17
75471;HTU21D;64051;46.320;48.028;2023-05-10T13:48:10;23.91;41.43
75471;HTU21D;64051;46.320;48.028;2023-05-10T13:53:58;23.96;41.55
75471;HTU21D;64051;46.320;48.028;2023-05-10T13:56:24;23.96;41.23
75471;HTU21D;64051;46.320;48.028;2023-05-10T13:58:50;23.91;41.18
75471;HTU21D;64051;46.320;48.028;2023-05-10T14:01:16;23.86;41.09
75471;HTU21D;64051;46.320;48.028;2023-05-10T14:03:42;23.81;41.15
75471;HTU21D;64051;46.320;48.028;2023-05-10T14:06:26;23.80;41.23
75471;HTU21D;64051;46.320;48.028;2023-05-10T14:08:58;23.83;41.06
75471;HTU21D;64051;46.320;48.028;2023-05-10T14:11:43;23.82;40.84
75471;HTU21D;64051;46.320;48.028;2023-05-10T14:14:28;23.76;41.06
75471;HTU21D;64051;46.320;48.028;2023-05-10T14:16:55;23.73;41.00
75471;HTU21D;64051;46.320;48.028;2023-05-10T14:19:21;23.66;40.91
75471;HTU21D;64051;46.320;48.028;2023-05-10T14:21:47;23.56;40.90
75471;HTU21D;64051;46.320;48.028;2023-05-10T14:24:17;23.46;40.97
75471;HTU21D;64051;46.320;48.028;2023-05-10T14:26:45;23.37;41.00
75471;HTU21D;64051;46.320;48.028;2023-05-10T14:29:16;23.28;40.88
75471;HTU21D;64051;46.320;48.028;2023-05-10T14:31:47;23.18;40.93
75471;HTU21D;64051;46.320;48.028;2023-05-10T14:34:13;23.08;41.15
75471;HTU21D;64051;46.320;48.028;2023-05-10T14:36:39;22.99;41.23
75471;HTU21D;64051;46.320;48.028;2023-05-10T14:39:05;22.94;41.34
75471;HTU21D;64051;46.320;48.028;2023-05-10T14:41:51;22.90;41.45
75471;HTU21D;64051;46.320;48.028;2023-05-10T14:44:42;22.87;41.39
75471;HTU21D;64051;46.320;48.028;2023-05-10T14:47:11;22.81;41.57
75471;HTU21D;64051;46.320;48.028;2023-05-10T14:49:40;22.72;41.66
75471;HTU21D;64051;46.320;48.028;2023-05-10T14:52:25;22.66;41.84
75471;HTU21D;64051;46.320;48.028;2023-05-10T14:54:54;22.60;41.94
75471;HTU21D;64051;46.320;48.028;2023-05-10T14:57:23;22.52;42.01
75471;HTU21D;64051;46.320;48.028;2023-05-10T14:59:58;22.43;42.10
75471;HTU21D;64051;46.320;48.028;2023-05-10T15:02:27;22.34;42.26
75471;HTU21D;64051;46.320;48.028;2023-05-10T15:05:00;22.26;42.35
75471;HTU21D;64051;46.320;48.028;2023-05-10T15:07:34;22.19;42.55
75471;HTU21D;64051;46.320;48.028;2023-05-10T15:10:32;22.11;42.67
75471;HTU21D;64051;46.320;48.028;2023-05-10T15:15:45;21.97;42.71
75471;HTU21D;64051;46.320;48.028;2023-05-10T15:18:14;21.91;42.75
75471;HTU21D;64051;46.320;48.028;2023-05-10T15:20:40;21.85;42.82
75471;HTU21D;64051;46.320;48.028;2023-05-10T15:25:51;21.70;42.93
75471;HTU21D;64051;46.320;48.028;2023-05-10T15:28:24;21.65;42.95
75471;HTU21D;64051;46.320;48.028;2023-05-10T15:30:51;21.58;42.99
75471;HTU21D;64051;46.320;48.028;2023-05-10T15:33:21;21.53;43.04
75471;HTU21D;64051;46.320;48.028;2023-05-10T15:38:50;21.43;43.22
75471;HTU21D;64051;46.320;48.028;2023-05-10T15:41:16;21.35;43.28
75471;HTU21D;64051;46.320;48.028;2023-05-10T15:44:02;21.31;43.20
75471;HTU21D;64051;46.320;48.028;2023-05-10T15:46:47;21.22;43.47
75471;HTU21D;64051;46.320;48.028;2023-05-10T15:49:32;21.17;43.42
75471;HTU21D;64051;46.320;48.028;2023-05-10T15:52:04;21.08;43.64
75471;HTU21D;64051;46.320;48.028;2023-05-10T15:54:49;21.00;43.75
75471;HTU21D;64051;46.320;48.028;2023-05-10T16:00:04;20.86;44.00
75471;HTU21D;64051;46.320;48.028;2023-05-10T16:02:38;20.80;44.12
75471;HTU21D;64051;46.320;48.028;2023-05-10T16:08:19;20.66;44.35
75471;HTU21D;64051;46.320;48.028;2023-05-10T16:10:50;20.61;44.47
75471;HTU21D;64051;46.320;48.028;2023-05-10T16:13:20;20.57;44.58
75471;HTU21D;64051;46.320;48.028;2023-05-10T16:16:01;20.50;44.72
75471;HTU21D;64051;46.320;48.028;2023-05-10T16:18:27;20.47;44.83
75471;HTU21D;64051;46.320;48.028;2023-05-10T16:20:58;20.44;44.98
75471;HTU21D;64051;46.320;48.028;2023-05-10T16:23:29;20.39;45.12
75471;HTU21D;64051;46.320;48.028;2023-05-10T16:26:01;20.34;45.22
75471;HTU21D;64051;46.320;48.028;2023-05-10T16:28:33;20.27;45.32
75471;HTU21D;64051;46.320;48.028;2023-05-10T16:32:17;20.20;45.49